Didsbury, Canada
Current Conditions -  °F | °C
As of 4:00 AM on Tuesday 21 Oct 2014 (Local Time) from CYQF Reporting Station
Scattered Clouds Scattered Clouds  
Wind Chill: 38°   Ceiling: Unl
Heat Index: 43°   Visibility: 15mi
Dew Point: 36°   Wind: 8mph
Humidity: 76%   Direction: 300°WNW
Pressure: 29.61"   Gusts: NA
Location:  51.67°N, 114.13°W
Report Text: CYQF 211000Z 30007KT 15SM SCT230 06/02 A2961 RMK CI4 SLP034
Loading
Personal Weather Stations






























Interactive Weather Map
Tropical Storm Tracking
New forecast layout! Learn more

10-Day Weather Forecast

Advertisements
Track Severe Weather on mobile